Terminal Aerodrome Forecast
Issued by NWS Wilmington, NC

Home | Current Version | Previous Version | Text Only | Print | Product List | Glossary On
Versions: 1 2 3 4 5 6 7 8 9 10 11 12 13 14 15 16 17 18 19 20 21 22 23 24 25 26 27 28 29 30 31 32 33 34 35 36 37
000
FTUS42 KILM 231700
TAFLBT
TAF
KLBT 231720Z 2318/2418 25004KT P6SM VCTS SCT025CB
      TEMPO 2318/2322 4SM TSRA BKN025CB
     FM232200 21007KT P6SM VCSH SCT030 SCT200
     FM240200 VRB03KT P6SM SCT250
     FM241600 24011KT P6SM VCSH BKN030=

USA.gov is the U.S. government's official web portal to all federal, state and local government web resources and services.